createdAt,value
2018-03-23T00:01:34.719Z,100800.23
2018-03-23T00:04:02.981Z,100800.80
2018-03-23T00:06:31.349Z,100799.14
2018-03-23T00:09:00.548Z,100797.83
2018-03-23T00:11:28.924Z,100802.34
2018-03-23T00:13:57.460Z,100803.19
2018-03-23T00:16:26.491Z,100805.83
2018-03-23T00:18:54.893Z,100806.26
2018-03-23T00:21:23.168Z,100808.02
2018-03-23T00:23:52.959Z,100814.23
2018-03-23T00:26:21.460Z,100813.60
2018-03-23T00:28:49.749Z,100806.78
2018-03-23T00:31:18.032Z,100809.29
2018-03-23T00:33:46.337Z,100811.75
2018-03-23T00:36:15.380Z,100813.67
2018-03-23T00:38:43.772Z,100812.21
2018-03-23T00:41:12.137Z,100814.78
2018-03-23T00:43:41.215Z,100809.05
2018-03-23T00:52:55.736Z,100809.22
2018-03-23T00:55:24.674Z,100805.91
2018-03-23T00:57:53.369Z,100801.67
2018-03-23T01:00:22.473Z,100803.45
2018-03-23T01:02:51.529Z,100795.64
2018-03-23T01:05:19.823Z,100797.84
2018-03-23T01:07:49.700Z,100797.22
2018-03-23T01:10:18.001Z,100797.52
2018-03-23T01:12:46.561Z,100801.12
2018-03-23T01:15:15.147Z,100804.55
2018-03-23T01:17:43.416Z,100806.64
2018-03-23T01:20:11.697Z,100803.49
2018-03-23T01:22:42.009Z,100801.61
2018-03-23T01:25:10.289Z,100803.75
2018-03-23T01:27:39.196Z,100808.84
2018-03-23T01:30:07.497Z,100811.48
2018-03-23T01:32:35.821Z,100804.55
2018-03-23T01:35:04.401Z,100793.02
2018-03-23T01:37:33.449Z,100788.92
2018-03-23T01:40:01.708Z,100792.75
2018-03-23T01:42:30.311Z,100790.25
2018-03-23T01:44:59.301Z,100787.70
2018-03-23T01:47:27.596Z,100784.02
2018-03-23T01:49:55.961Z,100785.36
2018-03-23T01:52:24.444Z,100784.78
2018-03-23T01:54:52.720Z,100789.79
2018-03-23T01:57:21.017Z,100786.05
2018-03-23T01:59:50.103Z,100786.17
2018-03-23T02:02:18.379Z,100779.94
2018-03-23T02:04:47.103Z,100778.54
2018-03-23T02:07:15.431Z,100776.48
2018-03-23T02:09:44.156Z,100779.06
2018-03-23T02:12:12.432Z,100772.02
2018-03-23T02:14:40.703Z,100765.02
2018-03-23T02:17:08.960Z,100767.56
2018-03-23T02:19:37.359Z,100764.39
2018-03-23T02:22:06.117Z,100759.85
2018-03-23T02:24:34.381Z,100761.70
2018-03-23T02:27:02.772Z,100755.61
2018-03-23T02:29:31.539Z,100760.55
2018-03-23T02:32:00.566Z,100755.96
2018-03-23T02:34:28.939Z,100758.50
2018-03-23T02:36:57.402Z,100761.30
2018-03-23T02:39:25.691Z,100758.92
2018-03-23T02:41:53.997Z,100756.34
2018-03-23T02:44:22.273Z,100750.31
2018-03-23T02:46:50.542Z,100746.41
2018-03-23T02:49:19.016Z,100741.95
2018-03-23T02:51:47.281Z,100736.80
2018-03-23T02:54:16.716Z,100737.15
2018-03-23T02:56:45.076Z,100735.11
2018-03-23T02:59:13.371Z,100736.22
2018-03-23T03:01:41.971Z,100734.12
2018-03-23T03:04:10.318Z,100730.30
2018-03-23T03:06:38.598Z,100730.92
2018-03-23T03:09:07.429Z,100733.72
2018-03-23T03:11:35.728Z,100738.69
2018-03-23T03:14:04.768Z,100736.24
2018-03-23T03:16:33.075Z,100735.98
2018-03-23T03:19:01.660Z,100741.48
2018-03-23T03:21:30.698Z,100734.56
2018-03-23T03:23:59.209Z,100723.80
2018-03-23T03:26:27.480Z,100724.44
2018-03-23T03:28:55.772Z,100722.56
2018-03-23T03:31:24.168Z,100722.75
2018-03-23T03:33:52.511Z,100714.13
2018-03-23T03:36:20.800Z,100713.36
2018-03-23T03:38:49.079Z,100712.09
2018-03-23T03:41:17.447Z,100709.28
2018-03-23T03:43:46.587Z,100714.35
2018-03-23T03:46:15.158Z,100708.20
2018-03-23T03:48:43.460Z,100711.16
2018-03-23T03:51:11.738Z,100711.34
2018-03-23T03:53:40.784Z,100706.51
2018-03-23T03:56:09.064Z,100708.12
2018-03-23T03:58:37.368Z,100706.61
2018-03-23T04:01:05.732Z,100706.48
2018-03-23T04:03:34.887Z,100703.06
2018-03-23T04:06:03.948Z,100702.91
2018-03-23T04:08:32.264Z,100701.58
2018-03-23T04:11:02.409Z,100702.95
2018-03-23T04:13:30.697Z,100696.17
2018-03-23T04:15:58.995Z,100690.80
2018-03-23T04:18:27.277Z,100695.91
2018-03-23T04:20:55.588Z,100688.66
2018-03-23T04:23:25.247Z,100685.91
2018-03-23T04:25:53.523Z,100688.56
2018-03-23T04:28:22.624Z,100691.95
2018-03-23T04:30:50.912Z,100691.91
2018-03-23T04:33:19.384Z,100682.66
2018-03-23T04:35:49.316Z,100684.53
2018-03-23T04:38:17.641Z,100683.84
2018-03-23T04:40:45.907Z,100688.05
2018-03-23T04:43:14.958Z,100680.58
2018-03-23T04:45:43.469Z,100679.05
2018-03-23T04:48:11.842Z,100679.09
2018-03-23T04:50:40.403Z,100679.86
2018-03-23T04:53:08.888Z,100667.05
2018-03-23T04:55:38.199Z,100674.73
2018-03-23T04:58:06.505Z,100677.58
2018-03-23T05:00:35.667Z,100671.55
2018-03-23T05:03:03.944Z,100674.13
2018-03-23T05:05:32.309Z,100666.10
2018-03-23T05:08:00.939Z,100667.80
2018-03-23T05:10:29.589Z,100668.98
2018-03-23T05:12:58.160Z,100664.17
2018-03-23T05:15:26.424Z,100666.32
2018-03-23T05:17:54.710Z,100666.37
2018-03-23T05:20:22.995Z,100662.29
2018-03-23T05:22:51.264Z,100667.43
2018-03-23T05:25:20.208Z,100669.28
2018-03-23T05:27:48.788Z,100673.83
2018-03-23T05:30:17.722Z,100673.14
2018-03-23T05:32:46.011Z,100672.58
2018-03-23T05:35:14.293Z,100667.66
2018-03-23T05:37:42.560Z,100657.89
2018-03-23T05:40:11.492Z,100661.66
2018-03-23T05:42:40.351Z,100663.09
2018-03-23T05:45:08.655Z,100663.66
2018-03-23T05:47:36.947Z,100669.89
2018-03-23T05:50:05.219Z,100665.81
2018-03-23T05:52:34.332Z,100668.75
2018-03-23T05:55:02.628Z,100671.32
2018-03-23T05:57:33.122Z,100672.59
2018-03-23T06:00:01.984Z,100672.81
2018-03-23T06:02:30.476Z,100675.00
2018-03-23T06:04:58.847Z,100668.24
2018-03-23T06:07:27.890Z,100678.90
2018-03-23T06:09:56.435Z,100678.05
2018-03-23T06:12:24.698Z,100673.12
2018-03-23T06:14:53.745Z,100661.75
2018-03-23T06:17:22.495Z,100662.12
2018-03-23T06:19:52.432Z,100658.55
2018-03-23T06:22:20.704Z,100664.27
2018-03-23T06:24:49.080Z,100657.34
2018-03-23T06:27:17.356Z,100663.73
2018-03-23T06:29:45.656Z,100665.93
2018-03-23T06:32:14.235Z,100660.61
2018-03-23T06:34:43.036Z,100668.59
2018-03-23T06:37:12.303Z,100663.22
2018-03-23T06:39:40.887Z,100663.20
2018-03-23T06:42:09.735Z,100658.48
2018-03-23T06:44:38.799Z,100658.52
2018-03-23T06:47:07.100Z,100656.42
2018-03-23T06:49:36.177Z,100654.47
2018-03-23T06:52:04.991Z,100661.34
2018-03-23T06:54:34.028Z,100661.13
2018-03-23T06:57:02.628Z,100660.71
2018-03-23T06:59:30.984Z,100654.37
2018-03-23T07:01:59.584Z,100654.05
2018-03-23T07:04:27.899Z,100656.84
2018-03-23T07:06:56.228Z,100655.99
2018-03-23T07:09:24.671Z,100655.63
2018-03-23T07:11:53.704Z,100664.61
2018-03-23T07:14:21.983Z,100659.16
2018-03-23T07:16:50.827Z,100657.25
2018-03-23T07:19:19.132Z,100657.72
2018-03-23T07:21:47.401Z,100655.95
2018-03-23T07:24:16.449Z,100649.16
2018-03-23T07:26:44.740Z,100646.31
2018-03-23T07:29:13.131Z,100643.05
2018-03-23T07:31:41.394Z,100646.33
2018-03-23T07:34:09.704Z,100644.30
2018-03-23T07:36:38.743Z,100637.31
2018-03-23T07:39:07.300Z,100645.69
2018-03-23T07:41:36.357Z,100636.59
2018-03-23T07:44:04.907Z,100638.45
2018-03-23T07:46:33.192Z,100634.52
2018-03-23T07:49:01.489Z,100634.16
2018-03-23T07:51:30.480Z,100636.31
2018-03-23T07:53:58.791Z,100635.73
2018-03-23T07:56:27.839Z,100639.34
2018-03-23T07:58:56.958Z,100637.13
2018-03-23T08:01:25.307Z,100636.81
2018-03-23T08:03:53.688Z,100632.14
2018-03-23T08:06:22.835Z,100636.59
2018-03-23T08:08:51.881Z,100630.87
2018-03-23T08:11:20.180Z,100633.54
2018-03-23T08:13:48.435Z,100635.45
2018-03-23T08:16:16.810Z,100633.83
2018-03-23T08:18:45.343Z,100630.81
2018-03-23T08:21:13.605Z,100631.30
2018-03-23T08:23:42.783Z,100630.52
2018-03-23T08:26:11.068Z,100630.03
2018-03-23T08:28:39.347Z,100620.03
2018-03-23T08:31:08.957Z,100621.15
2018-03-23T08:33:37.328Z,100621.91
2018-03-23T08:36:05.724Z,100621.20
2018-03-23T08:38:34.136Z,100620.78
2018-03-23T08:41:03.314Z,100624.64
2018-03-23T08:43:31.585Z,100620.06
2018-03-23T08:46:00.305Z,100624.01
2018-03-23T08:48:30.065Z,100621.92
2018-03-23T08:50:59.948Z,100623.45
2018-03-23T08:53:29.694Z,100623.53
2018-03-23T08:55:57.970Z,100623.45
2018-03-23T08:58:26.269Z,100618.95
2018-03-23T09:00:55.024Z,100613.59
2018-03-23T09:03:23.651Z,100615.70
2018-03-23T09:05:52.299Z,100611.73
2018-03-23T09:08:21.310Z,100604.61
2018-03-23T09:10:49.688Z,100605.64
2018-03-23T09:13:18.367Z,100604.19
2018-03-23T09:15:46.651Z,100606.20
2018-03-23T09:18:14.903Z,100597.50
2018-03-23T09:20:43.197Z,100598.00
2018-03-23T09:23:11.458Z,100590.16
2018-03-23T09:25:39.735Z,100584.94
2018-03-23T09:28:08.234Z,100582.54
2018-03-23T09:30:36.504Z,100586.09
2018-03-23T09:33:04.764Z,100583.00
2018-03-23T09:35:33.971Z,100576.25
2018-03-23T09:38:02.248Z,100572.92
2018-03-23T09:40:30.511Z,100576.76
2018-03-23T09:42:59.603Z,100574.40
2018-03-23T09:45:28.679Z,100574.69
2018-03-23T09:47:57.263Z,100572.28
2018-03-23T09:50:25.536Z,100583.14
2018-03-23T09:52:54.188Z,100583.89
2018-03-23T09:55:22.819Z,100581.19
2018-03-23T09:57:51.859Z,100579.55
2018-03-23T10:00:20.132Z,100578.00
2018-03-23T10:02:49.036Z,100575.38
2018-03-23T10:05:17.303Z,100575.33
2018-03-23T10:07:45.675Z,100569.55
2018-03-23T10:10:14.561Z,100572.04
2018-03-23T10:12:43.161Z,100567.70
2018-03-23T10:15:11.492Z,100573.14
2018-03-23T10:17:39.767Z,100569.69
2018-03-23T10:20:08.316Z,100561.08
2018-03-23T10:22:36.688Z,100554.77
2018-03-23T10:25:05.870Z,100554.89
2018-03-23T10:27:34.154Z,100548.16
2018-03-23T10:30:02.941Z,100539.66
2018-03-23T10:32:31.244Z,100529.98
2018-03-23T10:35:00.292Z,100521.68
2018-03-23T10:37:29.398Z,100527.06
2018-03-23T10:39:58.828Z,100523.67
2018-03-23T10:42:27.128Z,100522.61
2018-03-23T10:44:55.588Z,100521.61
2018-03-23T10:47:23.880Z,100519.34
2018-03-23T10:49:52.148Z,100519.67
2018-03-23T10:52:20.524Z,100518.43
2018-03-23T10:54:49.156Z,100514.10
2018-03-23T10:57:17.427Z,100522.03
2018-03-23T10:59:46.112Z,100521.09
2018-03-23T11:05:20.551Z,100521.59
2018-03-23T11:07:49.097Z,100514.75
2018-03-23T11:10:17.583Z,100510.60
2018-03-23T11:12:45.905Z,100508.92
2018-03-23T11:15:14.180Z,100500.95
2018-03-23T11:17:42.520Z,100493.67
2018-03-23T11:20:10.784Z,100488.70
2018-03-23T11:22:39.273Z,100489.06
2018-03-23T11:25:07.550Z,100485.89
2018-03-23T11:27:35.804Z,100483.63
2018-03-23T11:30:04.436Z,100487.38
2018-03-23T11:32:32.691Z,100486.36
2018-03-23T11:35:02.219Z,100482.23
2018-03-23T11:37:30.603Z,100474.20
2018-03-23T11:39:58.859Z,100479.47
2018-03-23T11:42:27.128Z,100473.28
2018-03-23T11:44:56.131Z,100469.70
2018-03-23T11:47:24.401Z,100462.88
2018-03-23T11:49:52.656Z,100460.85
2018-03-23T11:52:20.935Z,100457.22
2018-03-23T11:54:49.231Z,100455.31
2018-03-23T11:57:17.516Z,100453.05
2018-03-23T11:59:45.815Z,100444.63
2018-03-23T12:02:14.302Z,100444.58
2018-03-23T12:04:42.653Z,100447.99
2018-03-23T12:07:11.198Z,100439.90
2018-03-23T12:09:40.240Z,100440.41
2018-03-23T12:12:09.751Z,100439.52
2018-03-23T12:14:38.623Z,100428.77
2018-03-23T12:17:06.880Z,100427.04
2018-03-23T12:19:35.935Z,100420.13
2018-03-23T12:22:04.600Z,100421.00
2018-03-23T12:24:33.494Z,100413.55
2018-03-23T12:27:01.870Z,100415.62
2018-03-23T12:29:30.155Z,100412.02
2018-03-23T12:31:58.560Z,100413.09
2018-03-23T12:34:26.816Z,100409.38
2018-03-23T12:36:55.112Z,100409.73
2018-03-23T12:39:24.007Z,100401.43
2018-03-23T12:41:52.671Z,100396.44
2018-03-23T12:44:20.963Z,100392.89
2018-03-23T12:46:50.173Z,100392.86
2018-03-23T12:49:18.899Z,100393.30
2018-03-23T12:51:47.197Z,100383.73
2018-03-23T12:54:16.305Z,100385.42
2018-03-23T12:56:44.858Z,100378.58
2018-03-23T12:59:13.131Z,100381.48
2018-03-23T13:01:43.072Z,100383.88
2018-03-23T13:04:12.041Z,100374.38
2018-03-23T13:06:41.081Z,100375.22
2018-03-23T13:09:09.568Z,100370.64
2018-03-23T13:11:38.136Z,100375.16
2018-03-23T13:14:06.424Z,100375.63
2018-03-23T13:16:34.684Z,100371.98
2018-03-23T13:19:02.997Z,100377.32
2018-03-23T13:21:31.621Z,100362.78
2018-03-23T13:24:00.760Z,100364.41
2018-03-23T13:26:29.057Z,100354.14
2018-03-23T13:28:57.366Z,100351.17
2018-03-23T13:31:27.768Z,100354.17
2018-03-23T13:33:56.139Z,100352.86
2018-03-23T13:36:24.496Z,100357.69
2018-03-23T13:38:52.793Z,100354.50
2018-03-23T13:41:21.108Z,100350.20
2018-03-23T13:43:50.151Z,100347.27
2018-03-23T13:46:18.423Z,100344.30
2018-03-23T13:48:46.818Z,100350.91
2018-03-23T13:51:15.084Z,100346.52
2018-03-23T13:53:43.383Z,100344.53
2018-03-23T13:56:11.737Z,100341.95
2018-03-23T14:01:48.864Z,100335.05
2018-03-23T14:04:17.421Z,100332.53
2018-03-23T14:06:45.712Z,100333.84
2018-03-23T14:09:14.713Z,100333.19
2018-03-23T14:11:43.188Z,100331.94
2018-03-23T14:14:11.980Z,100338.87
2018-03-23T14:16:40.264Z,100331.06
2018-03-23T14:19:08.576Z,100331.00
2018-03-23T14:21:37.611Z,100327.70
2018-03-23T14:24:06.773Z,100330.61
2018-03-23T14:26:35.821Z,100330.95
2018-03-23T14:29:04.177Z,100326.51
2018-03-23T14:31:32.409Z,100318.59
2018-03-23T14:34:00.805Z,100326.38
2018-03-23T14:36:29.848Z,100311.91
2018-03-23T14:38:59.620Z,100321.13
2018-03-23T14:41:29.482Z,100324.84
2018-03-23T14:43:57.769Z,100319.07
2018-03-23T14:46:26.256Z,100319.76
2018-03-23T14:48:54.551Z,100315.64
2018-03-23T14:51:22.846Z,100313.19
2018-03-23T14:53:51.681Z,100308.42
2018-03-23T14:56:19.959Z,100297.80
2018-03-23T14:58:53.740Z,100295.32
2018-03-23T15:01:23.489Z,100293.20
2018-03-23T15:03:52.348Z,100294.05
2018-03-23T15:06:20.626Z,100294.47
2018-03-23T15:08:48.897Z,100288.25
2018-03-23T15:11:17.332Z,100287.16
2018-03-23T15:13:45.620Z,100288.36
2018-03-23T15:16:14.512Z,100284.71
2018-03-23T15:18:43.319Z,100285.56
2018-03-23T15:21:11.605Z,100278.91
2018-03-23T15:23:41.108Z,100282.77
2018-03-23T15:26:10.184Z,100286.81
2018-03-23T15:28:38.513Z,100283.03
2018-03-23T15:31:06.790Z,100280.06
2018-03-23T15:36:02.626Z,100273.94
2018-03-23T15:38:31.958Z,100271.48
2018-03-23T15:41:00.257Z,100275.54
2018-03-23T15:43:29.434Z,100270.60
2018-03-23T15:45:57.752Z,100275.53
2018-03-23T15:48:26.561Z,100271.44
2018-03-23T15:50:54.848Z,100277.65
2018-03-23T15:53:24.161Z,100272.66
2018-03-23T15:55:52.454Z,100272.93
2018-03-23T15:58:20.724Z,100269.64
2018-03-23T16:00:49.833Z,100272.99
2018-03-23T16:03:18.115Z,100273.32
2018-03-23T16:05:46.628Z,100269.09
2018-03-23T16:08:14.917Z,100264.54
2018-03-23T16:10:43.973Z,100267.87
2018-03-23T16:13:12.280Z,100271.63
2018-03-23T16:15:40.605Z,100272.02
2018-03-23T16:18:08.897Z,100272.06
2018-03-23T16:20:37.181Z,100269.52
2018-03-23T16:23:05.469Z,100269.48
2018-03-23T16:25:33.755Z,100271.55
2018-03-23T16:28:02.049Z,100271.06
2018-03-23T16:30:30.368Z,100266.44
2018-03-23T16:32:59.061Z,100258.16
2018-03-23T16:35:27.330Z,100258.63
2018-03-23T16:37:55.728Z,100253.16
2018-03-23T16:40:25.340Z,100257.27
2018-03-23T16:42:53.636Z,100251.01
2018-03-23T16:45:22.064Z,100251.91
2018-03-23T16:47:51.105Z,100251.51
2018-03-23T16:50:19.418Z,100247.33
2018-03-23T16:52:48.464Z,100244.20
2018-03-23T16:55:16.748Z,100265.00
2018-03-23T16:57:45.060Z,100270.83
2018-03-23T17:00:13.325Z,100273.42
2018-03-23T17:02:41.689Z,100277.02
2018-03-23T17:05:10.076Z,100271.22
2018-03-23T17:07:38.900Z,100276.60
2018-03-23T17:10:07.973Z,100270.81
2018-03-23T17:12:36.443Z,100273.62
2018-03-23T17:15:04.723Z,100271.95
2018-03-23T17:17:33.037Z,100275.26
2018-03-23T17:20:02.568Z,100276.94
2018-03-23T17:22:30.831Z,100284.00
2018-03-23T17:25:00.109Z,100286.06
2018-03-23T17:27:28.885Z,100284.50
2018-03-23T17:29:57.740Z,100283.52
2018-03-23T17:32:26.564Z,100284.33
2018-03-23T17:34:55.112Z,100286.50
2018-03-23T17:37:23.429Z,100281.94
2018-03-23T17:39:51.724Z,100274.52
2018-03-23T17:42:20.911Z,100276.90
2018-03-23T17:44:49.180Z,100274.42
2018-03-23T17:47:17.859Z,100274.02
2018-03-23T17:49:46.444Z,100273.12
2018-03-23T17:52:15.267Z,100272.65
2018-03-23T17:54:44.220Z,100269.81
2018-03-23T17:57:12.516Z,100268.96
2018-03-23T17:59:40.776Z,100271.84
2018-03-23T18:02:09.087Z,100282.99
2018-03-23T18:04:37.487Z,100280.02
2018-03-23T18:07:06.517Z,100281.23
2018-03-23T18:09:34.820Z,100277.45
2018-03-23T18:12:03.090Z,100281.56
2018-03-23T18:14:31.373Z,100286.52
2018-03-23T18:16:59.826Z,100282.04
2018-03-23T18:19:28.249Z,100281.46
2018-03-23T18:21:57.260Z,100277.34
2018-03-23T18:24:26.429Z,100283.98
2018-03-23T18:26:55.215Z,100283.95
2018-03-23T18:29:23.508Z,100279.02
2018-03-23T18:31:52.406Z,100280.26
2018-03-23T18:34:21.276Z,100283.55
2018-03-23T18:36:49.575Z,100285.63
2018-03-23T18:39:17.847Z,100286.02
2018-03-23T18:41:46.201Z,100284.34
2018-03-23T18:44:14.589Z,100287.18
2018-03-23T18:46:42.868Z,100285.14
2018-03-23T18:49:11.136Z,100282.27
2018-03-23T18:51:39.435Z,100280.98
2018-03-23T18:54:08.061Z,100283.81
2018-03-23T18:56:36.354Z,100274.36
2018-03-23T18:59:04.668Z,100276.77
2018-03-23T19:01:32.961Z,100282.08
2018-03-23T19:04:01.246Z,100282.36
2018-03-23T19:06:29.594Z,100285.22
2018-03-23T19:08:57.885Z,100286.95
2018-03-23T19:11:26.240Z,100286.14
2018-03-23T19:13:54.800Z,100283.63
2018-03-23T19:16:25.908Z,100291.87
2018-03-23T19:18:54.205Z,100290.63
2018-03-23T19:21:23.380Z,100285.22
2018-03-23T19:23:52.085Z,100286.36
2018-03-23T19:26:21.175Z,100292.16
2018-03-23T19:28:49.509Z,100286.26
2018-03-23T19:31:17.817Z,100288.64
2018-03-23T19:33:46.545Z,100282.18
2018-03-23T19:36:15.852Z,100283.00
2018-03-23T19:38:44.396Z,100283.34
2018-03-23T19:41:12.730Z,100286.56
2018-03-23T19:43:41.002Z,100289.08
2018-03-23T19:46:10.173Z,100284.48
2018-03-23T19:48:40.028Z,100284.12
2018-03-23T19:51:08.804Z,100289.00
2018-03-23T19:53:37.589Z,100284.48
2018-03-23T19:56:06.007Z,100291.03
2018-03-23T19:58:35.073Z,100285.73
2018-03-23T20:01:03.378Z,100287.55
2018-03-23T20:03:31.742Z,100288.73
2018-03-23T20:06:00.458Z,100286.31
2018-03-23T20:08:28.725Z,100281.27
2018-03-23T20:10:57.203Z,100285.78
2018-03-23T20:13:25.479Z,100282.59
2018-03-23T20:15:53.789Z,100282.07
2018-03-23T20:18:23.640Z,100287.06
2018-03-23T20:20:57.460Z,100286.94
2018-03-23T20:23:26.323Z,100279.08
2018-03-23T20:25:55.462Z,100277.76
2018-03-23T20:28:29.217Z,100277.70
2018-03-23T20:30:58.384Z,100273.58
2018-03-23T20:33:26.936Z,100275.81
2018-03-23T20:35:55.292Z,100278.48
2018-03-23T20:38:23.600Z,100272.67
2018-03-23T20:40:51.886Z,100271.70
2018-03-23T20:43:20.266Z,100274.54
2018-03-23T20:45:48.544Z,100272.94
2018-03-23T20:48:16.864Z,100276.53
2018-03-23T20:50:45.145Z,100277.70
2018-03-23T20:53:14.208Z,100275.20
2018-03-23T20:55:42.579Z,100269.73
2018-03-23T20:58:10.913Z,100266.09
2018-03-23T21:00:40.486Z,100262.61
2018-03-23T21:03:08.788Z,100261.25
2018-03-23T21:05:37.897Z,100263.93
2018-03-23T21:08:06.929Z,100266.10
2018-03-23T21:10:35.305Z,100263.68
2018-03-23T21:13:03.588Z,100266.49
2018-03-23T21:15:32.328Z,100266.04
2018-03-23T21:18:01.485Z,100270.92
2018-03-23T21:20:30.365Z,100266.24
2018-03-23T21:22:58.767Z,100256.45
2018-03-23T21:25:27.358Z,100255.95
2018-03-23T21:27:55.625Z,100257.69
2018-03-23T21:30:23.905Z,100257.61
2018-03-23T21:32:52.379Z,100258.17
2018-03-23T21:35:20.679Z,100250.48
2018-03-23T21:37:48.949Z,100251.36
2018-03-23T21:40:17.651Z,100248.77
2018-03-23T21:42:45.922Z,100260.63
2018-03-23T21:45:14.209Z,100259.92
2018-03-23T21:47:43.281Z,100255.41
2018-03-23T21:50:11.556Z,100255.47
2018-03-23T21:52:39.825Z,100252.58
2018-03-23T21:55:08.132Z,100252.20
2018-03-23T21:57:37.149Z,100250.29
2018-03-23T22:00:06.200Z,100252.22
2018-03-23T22:02:34.621Z,100253.55
2018-03-23T22:05:04.401Z,100248.88
2018-03-23T22:07:32.708Z,100246.41
2018-03-23T22:10:01.788Z,100249.74
2018-03-23T22:12:30.367Z,100252.79
2018-03-23T22:14:58.652Z,100249.43
2018-03-23T22:17:26.963Z,100260.56
2018-03-23T22:19:55.992Z,100255.84
2018-03-23T22:22:24.788Z,100254.13
2018-03-23T22:24:53.464Z,100260.22
2018-03-23T22:27:23.184Z,100260.69
2018-03-23T22:29:51.444Z,100266.11
2018-03-23T22:32:20.660Z,100259.51
2018-03-23T22:34:49.563Z,100261.98
2018-03-23T22:37:18.145Z,100258.02
2018-03-23T22:39:47.021Z,100263.25
2018-03-23T22:42:15.291Z,100261.20
2018-03-23T22:44:43.592Z,100255.86
2018-03-23T22:47:12.216Z,100252.91
2018-03-23T22:49:41.262Z,100263.97
2018-03-23T22:52:09.585Z,100254.57
2018-03-23T22:54:38.636Z,100256.55
2018-03-23T22:57:06.928Z,100258.12
2018-03-23T22:59:35.563Z,100261.41
2018-03-23T23:02:04.620Z,100259.85
2018-03-23T23:04:33.279Z,100256.14
2018-03-23T23:07:01.580Z,100257.06
2018-03-23T23:09:29.881Z,100251.18
2018-03-23T23:11:58.162Z,100245.30
2018-03-23T23:14:27.244Z,100241.58
2018-03-23T23:16:55.515Z,100252.18
2018-03-23T23:19:23.776Z,100244.30
2018-03-23T23:21:52.089Z,100252.53
2018-03-23T23:24:20.374Z,100247.05
2018-03-23T23:26:49.509Z,100249.50
2018-03-23T23:29:18.456Z,100240.11
2018-03-23T23:31:49.202Z,100243.56
2018-03-23T23:34:18.246Z,100235.87
2018-03-23T23:36:46.532Z,100235.05
2018-03-23T23:39:15.097Z,100228.35
2018-03-23T23:41:43.377Z,100232.55
2018-03-23T23:44:11.649Z,100228.40
2018-03-23T23:46:39.952Z,100229.26
2018-03-23T23:49:08.458Z,100230.37
2018-03-23T23:51:36.732Z,100234.97
2018-03-23T23:54:05.100Z,100229.72
2018-03-23T23:56:33.692Z,100226.39
2018-03-23T23:59:01.957Z,100222.29
